Terminal Aerodrome Forecast
Issued by NWS Paducah, KY

Home | Current Version | Previous Version | Text Only | Print | Product List | Glossary On
Versions: 1 2 3 4 5 6 7 8 9 10 11 12 13 14
692
FTUS43 KPAH 202320
TAFPAH
TAF
KPAH 202320Z 2100/2124 00000KT P6SM FEW250
     FM210900 00000KT 3SM BR SCT250
     FM211300 20005KT P6SM SCT040 SCT250=

USA.gov is the U.S. government's official web portal to all federal, state and local government web resources and services.